Time;durP1;ratioP1;P1;durP2;ratioP2;P2;SDS_P1;SDS_P2;PMS_P1;PMS_P2;Temp;Humidity;BMP_temperature;BMP_pressure;BME280_temperature;BME280_humidity;BME280_pressure;Samples;Min_cycle;Max_cycle;Signal;HPM_P1;HPM_P2
2021/12/31 00:01:24;;;;;;;11.43;3.25;;;13.20;99.90;;;;;;5039430;28;20045;-93
2021/12/31 00:03:52;;;;;;;12.90;3.25;;;13.20;99.90;;;;;;5057765;28;20060;-94
2021/12/31 00:06:17;;;;;;;10.35;2.90;;;13.20;99.90;;;;;;5044832;28;20055;-96
2021/12/31 00:08:43;;;;;;;11.43;2.95;;;13.20;99.90;;;;;;5079020;28;20044;-95
2021/12/31 00:11:09;;;;;;;13.32;3.40;;;13.20;99.90;;;;;;5075448;28;20390;-96
2021/12/31 00:13:35;;;;;;;12.63;3.40;;;13.30;99.90;;;;;;5059780;28;20493;-94
2021/12/31 00:16:00;;;;;;;11.05;3.25;;;13.20;99.90;;;;;;5055347;28;20049;-93
2021/12/31 00:18:29;;;;;;;12.32;3.35;;;13.30;99.90;;;;;;5089580;28;20048;-95
2021/12/31 00:20:55;;;;;;;12.57;3.50;;;13.30;99.90;;;;;;5058895;28;20044;-94
2021/12/31 00:23:25;;;;;;;10.73;3.05;;;13.30;99.90;;;;;;5060308;28;20064;-96
2021/12/31 00:25:51;;;;;;;11.15;3.08;;;13.20;99.90;;;;;;5060662;28;20044;-96
2021/12/31 00:28:17;;;;;;;12.68;3.05;;;13.30;99.90;;;;;;5058874;28;20040;-94
2021/12/31 00:30:43;;;;;;;12.10;3.38;;;13.30;99.90;;;;;;5076251;28;20051;-94
2021/12/31 00:33:12;;;;;;;11.70;4.05;;;13.40;99.90;;;;;;5085172;28;20056;-96
2021/12/31 00:35:38;;;;;;;11.32;3.00;;;13.30;99.90;;;;;;5076785;28;20044;-95
2021/12/31 00:38:04;;;;;;;12.55;3.40;;;13.30;99.90;;;;;;5068041;28;20086;-96
2021/12/31 00:40:30;;;;;;;11.80;3.55;;;13.30;99.90;;;;;;5084861;28;20036;-96
2021/12/31 00:42:56;;;;;;;12.70;3.97;;;13.40;99.90;;;;;;5061978;28;20048;-95
2021/12/31 00:45:24;;;;;;;11.50;3.40;;;13.30;99.90;;;;;;5077146;28;20241;-96
2021/12/31 00:47:50;;;;;;;8.85;2.67;;;13.40;99.90;;;;;;5077808;28;20075;-95
2021/12/31 00:50:16;;;;;;;12.50;3.40;;;13.40;99.90;;;;;;5076163;28;20048;-94
2021/12/31 00:52:42;;;;;;;13.80;3.47;;;13.40;99.90;;;;;;5050890;28;20541;-94
2021/12/31 00:55:11;;;;;;;12.55;3.70;;;13.40;99.90;;;;;;5060172;28;20390;-93
2021/12/31 00:57:38;;;;;;;9.43;3.15;;;13.40;99.90;;;;;;5073176;28;20044;-96
2021/12/31 01:00:06;;;;;;;10.27;3.67;;;13.40;99.90;;;;;;5072069;28;20068;-94
2021/12/31 01:02:35;;;;;;;11.52;3.38;;;13.40;99.90;;;;;;5057343;28;20052;-95
2021/12/31 01:05:03;;;;;;;13.52;4.03;;;13.50;99.90;;;;;;5071601;28;20104;-94
2021/12/31 01:07:31;;;;;;;10.68;3.00;;;13.50;99.90;;;;;;5037159;28;20049;-93
2021/12/31 01:09:57;;;;;;;11.90;3.42;;;13.50;99.90;;;;;;5041308;28;20049;-96
2021/12/31 01:12:25;;;;;;;11.77;3.60;;;13.50;99.90;;;;;;5067459;28;20086;-94
2021/12/31 01:14:57;;;;;;;11.88;3.63;;;13.50;99.90;;;;;;5052340;28;20037;-96
2021/12/31 01:17:45;;;;;;;11.50;4.22;;;13.40;99.90;;;;;;5064002;28;20378;-95
2021/12/31 01:20:14;;;;;;;9.90;3.30;;;13.50;99.90;;;;;;5057423;28;20048;-96
2021/12/31 01:22:41;;;;;;;13.35;3.30;;;13.50;99.90;;;;;;5048851;28;20045;-96
2021/12/31 01:25:08;;;;;;;12.98;3.17;;;13.60;99.90;;;;;;5057819;28;20056;-96
2021/12/31 01:27:35;;;;;;;10.25;3.10;;;13.60;99.90;;;;;;5063136;28;20044;-95
2021/12/31 01:30:01;;;;;;;11.70;3.28;;;13.60;99.90;;;;;;5155017;23;20087;-94
2021/12/31 01:32:27;;;;;;;11.40;3.70;;;13.70;99.90;;;;;;5036327;28;20046;-95
2021/12/31 01:34:52;;;;;;;10.20;3.40;;;13.60;99.90;;;;;;5038944;28;20615;-96
2021/12/31 01:37:18;;;;;;;11.10;4.05;;;13.60;99.90;;;;;;5037239;28;20087;-94
2021/12/31 01:39:43;;;;;;;12.40;3.30;;;13.60;99.90;;;;;;5033723;28;20052;-91
2021/12/31 01:44:42;;;;;;;10.38;3.22;;;13.60;99.90;;;;;;5020838;28;20050;-95
2021/12/31 01:47:12;;;;;;;11.73;3.38;;;13.50;99.90;;;;;;4986122;28;20516;-96
2021/12/31 01:49:41;;;;;;;11.23;3.30;;;13.50;99.90;;;;;;4986079;28;20045;-96
2021/12/31 01:52:11;;;;;;;8.80;3.13;;;13.50;99.90;;;;;;5117459;23;20311;-96
2021/12/31 01:54:37;;;;;;;11.25;3.40;;;13.50;99.90;;;;;;5026980;28;20120;-95
2021/12/31 01:57:08;;;;;;;11.00;3.35;;;13.50;99.90;;;;;;5030641;28;20052;-96
2021/12/31 01:59:36;;;;;;;11.35;3.80;;;13.50;99.90;;;;;;5043876;28;20041;-96
2021/12/31 02:02:05;;;;;;;9.80;3.40;;;13.50;99.90;;;;;;5033258;28;20056;-94
2021/12/31 02:04:31;;;;;;;11.18;3.58;;;13.40;99.90;;;;;;5032632;28;20045;-95
2021/12/31 02:06:58;;;;;;;10.13;3.60;;;13.50;99.90;;;;;;5026916;28;20096;-96
2021/12/31 02:09:23;;;;;;;10.13;3.65;;;13.40;99.90;;;;;;5048863;28;20045;-96
2021/12/31 02:11:54;;;;;;;10.70;3.42;;;13.50;99.90;;;;;;5050628;28;20047;-96
2021/12/31 02:17:12;;;;;;;11.02;3.80;;;13.50;99.90;;;;;;5294457;22;20072;31
2021/12/31 02:19:38;;;;;;;11.65;4.07;;;13.60;99.90;;;;;;4971822;28;20113;-96
2021/12/31 02:22:04;;;;;;;11.07;4.10;;;13.50;99.90;;;;;;4980215;28;20041;-96
2021/12/31 02:24:36;;;;;;;9.13;4.10;;;13.60;99.90;;;;;;5030783;23;20062;-96
2021/12/31 02:27:02;;;;;;;9.48;3.65;;;13.60;99.90;;;;;;5001283;28;20046;-96
2021/12/31 02:29:28;;;;;;;9.95;3.60;;;13.50;99.90;;;;;;5009447;28;20050;-96
2021/12/31 02:31:54;;;;;;;11.00;4.13;;;13.60;99.90;;;;;;4990560;28;20045;-96
2021/12/31 02:34:20;;;;;;;11.93;4.50;;;13.60;99.90;;;;;;4985517;28;20042;-96
2021/12/31 02:36:47;;;;;;;9.43;4.22;;;13.60;99.90;;;;;;4999920;28;20076;-96
2021/12/31 02:39:12;;;;;;;10.55;4.63;;;13.50;99.90;;;;;;4989373;28;20046;-95
2021/12/31 02:41:38;;;;;;;9.60;4.90;;;13.60;99.90;;;;;;5008557;28;20197;-96
2021/12/31 02:44:04;;;;;;;10.95;5.05;;;13.50;99.90;;;;;;4996147;28;20117;-95
2021/12/31 02:48:57;;;;;;;10.27;5.15;;;13.50;99.90;;;;;;5027629;23;20601;-96
2021/12/31 02:51:27;;;;;;;11.65;5.75;;;13.60;99.90;;;;;;5017725;28;20048;-96
2021/12/31 02:53:55;;;;;;;9.73;5.25;;;13.60;99.90;;;;;;5023220;28;20049;-92
2021/12/31 02:56:22;;;;;;;10.15;5.35;;;13.50;99.90;;;;;;5016579;28;20051;-96
2021/12/31 02:58:48;;;;;;;11.60;5.68;;;13.60;99.90;;;;;;5010765;28;20041;-96
2021/12/31 03:01:14;;;;;;;11.55;6.15;;;13.60;99.90;;;;;;5028202;28;20073;-96
2021/12/31 03:03:41;;;;;;;10.27;5.90;;;13.60;99.90;;;;;;5017641;28;20085;-95
2021/12/31 03:06:10;;;;;;;13.43;6.28;;;13.60;99.90;;;;;;5021942;28;20038;-95
2021/12/31 03:08:41;;;;;;;10.60;6.13;;;13.50;99.90;;;;;;5026962;28;20076;-96
2021/12/31 03:11:08;;;;;;;10.75;6.55;;;13.60;99.90;;;;;;5021434;28;20794;-94
2021/12/31 03:13:36;;;;;;;10.88;7.00;;;13.60;99.90;;;;;;5008202;28;20041;-95
2021/12/31 03:16:02;;;;;;;11.45;6.97;;;13.60;99.90;;;;;;5027781;28;20057;-93
2021/12/31 03:18:28;;;;;;;12.20;6.93;;;13.60;99.90;;;;;;5010145;28;20050;-96
2021/12/31 03:20:57;;;;;;;11.82;6.95;;;13.70;99.90;;;;;;5003694;28;20056;-95
2021/12/31 03:23:28;;;;;;;12.18;7.53;;;13.70;99.90;;;;;;5012323;28;20069;-95
2021/12/31 03:25:54;;;;;;;10.23;6.82;;;13.70;99.90;;;;;;5027671;28;20090;-95
2021/12/31 03:28:24;;;;;;;11.35;7.13;;;13.70;99.90;;;;;;5032576;28;20046;-96
2021/12/31 03:30:49;;;;;;;11.63;6.93;;;13.70;99.90;;;;;;5032890;28;20041;-96
2021/12/31 03:33:16;;;;;;;10.70;6.40;;;13.70;99.90;;;;;;5023616;28;20052;-95
2021/12/31 03:35:41;;;;;;;11.48;6.70;;;13.70;99.90;;;;;;5010734;28;20064;-93
2021/12/31 03:38:08;;;;;;;11.30;6.38;;;13.70;99.90;;;;;;5028325;28;20049;-96
2021/12/31 03:40:33;;;;;;;10.93;6.15;;;13.70;99.90;;;;;;5028568;28;20057;-94
2021/12/31 03:42:59;;;;;;;10.73;6.18;;;13.80;99.90;;;;;;5027575;28;20049;-95
2021/12/31 03:45:25;;;;;;;9.90;6.22;;;13.80;99.90;;;;;;5012881;28;20049;-95
2021/12/31 03:47:51;;;;;;;9.75;5.80;;;13.70;99.90;;;;;;5018425;28;20069;-94
2021/12/31 03:50:16;;;;;;;11.98;6.28;;;13.80;99.90;;;;;;5029808;28;20077;-96
2021/12/31 03:52:42;;;;;;;11.52;6.10;;;13.80;99.90;;;;;;5008089;28;20532;-94
2021/12/31 03:55:14;;;;;;;11.05;6.65;;;13.80;99.90;;;;;;4998900;28;20132;-96
2021/12/31 03:57:40;;;;;;;10.40;6.28;;;13.70;99.90;;;;;;5010029;28;20054;-94
2021/12/31 04:00:08;;;;;;;11.40;6.10;;;13.70;99.90;;;;;;5027699;28;20069;-94
2021/12/31 04:02:35;;;;;;;10.35;6.18;;;13.70;99.90;;;;;;5018431;28;20124;-96
2021/12/31 04:05:01;;;;;;;10.75;6.30;;;13.70;99.90;;;;;;5009155;28;20038;-96
2021/12/31 04:07:27;;;;;;;10.63;6.88;;;13.80;99.90;;;;;;5021336;28;20053;-96
2021/12/31 04:09:53;;;;;;;9.50;6.43;;;13.70;99.90;;;;;;5030523;28;20088;-95
2021/12/31 04:12:18;;;;;;;9.82;6.60;;;13.80;99.90;;;;;;5016637;28;20054;-96
2021/12/31 04:14:44;;;;;;;11.98;6.90;;;13.70;99.90;;;;;;5025717;28;20057;-96
2021/12/31 04:17:10;;;;;;;10.80;6.63;;;13.70;99.90;;;;;;5010881;28;20038;-95
2021/12/31 04:19:40;;;;;;;10.73;6.68;;;13.70;99.90;;;;;;5027935;28;20129;-95
2021/12/31 04:22:08;;;;;;;11.50;7.53;;;13.70;99.90;;;;;;5012913;28;20045;-94
2021/12/31 04:27:08;;;;;;;11.32;7.30;;;13.70;99.90;;;;;;5030159;28;20077;-94
2021/12/31 04:29:34;;;;;;;11.40;6.88;;;13.70;99.90;;;;;;5034961;28;20041;-94
2021/12/31 04:32:00;;;;;;;10.30;6.60;;;13.70;99.90;;;;;;5030267;28;20038;-95
2021/12/31 04:34:27;;;;;;;11.05;7.15;;;13.70;99.90;;;;;;5038017;28;20101;-95
2021/12/31 04:36:52;;;;;;;11.52;7.18;;;13.70;99.90;;;;;;5041429;28;20046;-95
2021/12/31 04:39:18;;;;;;;11.35;7.38;;;13.60;99.90;;;;;;5043580;28;20056;-96
2021/12/31 04:41:44;;;;;;;10.18;6.30;;;13.60;99.90;;;;;;5042672;28;20028;-95
2021/12/31 04:44:10;;;;;;;10.20;6.63;;;13.60;99.90;;;;;;5026284;28;20054;-96
2021/12/31 04:46:36;;;;;;;10.60;5.65;;;13.70;99.90;;;;;;5021528;28;20054;-92
2021/12/31 04:49:01;;;;;;;10.05;5.55;;;13.70;99.90;;;;;;5010699;28;20541;-96
2021/12/31 04:51:27;;;;;;;10.75;6.20;;;13.70;99.90;;;;;;5036851;28;20041;-96
2021/12/31 04:53:53;;;;;;;9.88;5.20;;;13.70;99.90;;;;;;5012260;28;20046;-95
2021/12/31 04:56:18;;;;;;;9.77;5.25;;;13.70;99.90;;;;;;5024762;28;20494;-96
2021/12/31 04:58:44;;;;;;;8.93;5.35;;;13.70;99.90;;;;;;5024825;28;20046;-96
2021/12/31 05:01:10;;;;;;;9.68;5.00;;;13.70;99.90;;;;;;5016665;28;20053;-95
2021/12/31 05:03:36;;;;;;;9.43;4.45;;;13.70;99.90;;;;;;5007517;28;20052;-95
2021/12/31 05:06:02;;;;;;;10.27;4.10;;;13.70;99.90;;;;;;5020324;28;20049;-95
2021/12/31 05:08:28;;;;;;;8.45;4.20;;;13.70;99.90;;;;;;5033090;28;20041;-94
2021/12/31 05:10:53;;;;;;;8.35;3.75;;;13.70;99.90;;;;;;5061165;23;20076;-96
2021/12/31 05:13:20;;;;;;;8.57;3.92;;;13.90;99.90;;;;;;5006758;28;20887;-96
2021/12/31 05:15:48;;;;;;;8.35;4.22;;;13.70;99.90;;;;;;5016977;28;20476;-95
2021/12/31 05:18:14;;;;;;;9.40;3.80;;;13.80;99.90;;;;;;4998941;28;20053;-96
2021/12/31 05:20:41;;;;;;;9.57;3.47;;;13.70;99.90;;;;;;5005538;28;20057;-96
2021/12/31 05:23:09;;;;;;;8.13;3.83;;;13.80;99.90;;;;;;4994246;28;20046;-96
2021/12/31 05:25:35;;;;;;;7.30;3.00;;;13.80;99.90;;;;;;5002726;28;20113;-94
2021/12/31 05:28:01;;;;;;;8.27;3.72;;;13.70;99.90;;;;;;5012787;28;20042;-93
2021/12/31 05:30:26;;;;;;;9.77;3.42;;;13.80;99.90;;;;;;4983929;28;20046;-96
2021/12/31 05:32:53;;;;;;;7.05;3.17;;;13.80;99.90;;;;;;4995528;28;20053;-96
2021/12/31 05:35:22;;;;;;;9.45;3.40;;;13.70;99.90;;;;;;5005277;28;20042;-92
2021/12/31 05:37:53;;;;;;;6.95;3.05;;;13.70;99.90;;;;;;4987459;28;20034;-94
2021/12/31 05:40:18;;;;;;;;;;;13.80;99.90;;;;;;4988470;28;20117;-96
2021/12/31 05:42:44;;;;;;;6.40;2.95;;;13.80;99.90;;;;;;4989277;28;19988;-94
2021/12/31 05:45:10;;;;;;;6.60;3.10;;;13.70;99.90;;;;;;5002201;28;20050;-94
2021/12/31 05:47:39;;;;;;;8.30;2.97;;;13.80;99.90;;;;;;4994579;28;20041;-95
2021/12/31 05:50:08;;;;;;;7.75;3.22;;;13.90;99.90;;;;;;5015433;28;20050;-94
2021/12/31 05:52:34;;;;;;;6.50;3.38;;;13.80;99.90;;;;;;4988317;28;20074;-96
2021/12/31 05:54:59;;;;;;;8.35;3.20;;;13.90;99.90;;;;;;4993110;28;20133;-96
2021/12/31 05:57:25;;;;;;;7.43;3.17;;;13.80;99.90;;;;;;5000864;28;20074;-96
2021/12/31 05:59:51;;;;;;;7.28;2.80;;;13.80;99.90;;;;;;5010049;28;20101;-96
2021/12/31 06:02:17;;;;;;;6.18;3.03;;;13.80;99.90;;;;;;4991885;28;20069;-95
2021/12/31 06:04:42;;;;;;;6.30;2.42;;;13.60;99.90;;;;;;4988932;28;20153;-96
2021/12/31 06:07:08;;;;;;;6.40;2.67;;;13.70;99.90;;;;;;5002463;28;20078;-96
2021/12/31 06:09:34;;;;;;;6.80;2.72;;;13.60;99.90;;;;;;5012011;28;20479;-95
2021/12/31 06:12:00;;;;;;;7.68;2.40;;;13.60;99.90;;;;;;4977725;28;20488;-96
2021/12/31 06:14:30;;;;;;;7.30;2.47;;;13.50;99.90;;;;;;5008131;28;20046;-95
2021/12/31 06:17:06;;;;;;;4.18;2.40;;;13.50;99.90;;;;;;4996590;28;20039;-95
2021/12/31 06:19:32;;;;;;;6.10;2.60;;;13.50;99.90;;;;;;5003415;28;20145;-96
2021/12/31 06:21:58;;;;;;;6.55;2.40;;;13.50;99.90;;;;;;5004268;28;20077;-94
2021/12/31 06:24:24;;;;;;;8.05;2.47;;;13.50;99.90;;;;;;5006716;28;20053;-94
2021/12/31 06:26:50;;;;;;;6.47;3.00;;;13.50;99.90;;;;;;4998302;28;20048;-95
2021/12/31 06:29:16;;;;;;;7.57;2.35;;;13.50;99.90;;;;;;4996584;28;20054;-94
2021/12/31 06:31:41;;;;;;;7.00;2.53;;;13.60;99.90;;;;;;5005092;28;20054;-96
2021/12/31 06:34:07;;;;;;;5.85;2.28;;;13.60;99.90;;;;;;4991279;28;20098;-96
2021/12/31 06:36:32;;;;;;;6.82;2.50;;;13.60;99.90;;;;;;4996498;28;20372;-93
2021/12/31 06:39:01;;;;;;;7.15;2.65;;;13.60;99.90;;;;;;4979664;28;20100;-94
2021/12/31 06:41:27;;;;;;;6.63;2.50;;;13.60;99.90;;;;;;4999920;28;20068;-95
2021/12/31 06:43:53;;;;;;;7.53;2.50;;;13.60;99.90;;;;;;5000214;28;20050;-91
2021/12/31 06:46:20;;;;;;;6.82;2.63;;;13.50;99.90;;;;;;5002214;28;20042;-89
2021/12/31 06:48:46;;;;;;;7.57;2.65;;;13.50;99.90;;;;;;4992451;28;20045;-94
2021/12/31 06:51:11;;;;;;;6.53;2.70;;;13.50;99.90;;;;;;4995487;28;20170;-92
2021/12/31 06:53:38;;;;;;;7.00;2.58;;;13.50;99.90;;;;;;4997874;28;20137;-89
2021/12/31 06:56:05;;;;;;;5.72;2.40;;;13.50;99.90;;;;;;4986487;28;20428;-96
2021/12/31 06:58:30;;;;;;;7.38;2.85;;;13.40;99.90;;;;;;4991508;28;20045;-93
2021/12/31 07:00:58;;;;;;;6.63;2.90;;;13.50;99.90;;;;;;4983048;28;20491;-96
2021/12/31 07:03:24;;;;;;;6.90;2.50;;;13.40;99.90;;;;;;4980389;28;20082;-93
2021/12/31 07:05:50;;;;;;;5.95;2.55;;;13.40;99.90;;;;;;4997481;28;20050;-94
2021/12/31 07:08:15;;;;;;;7.78;2.95;;;13.50;99.90;;;;;;4984273;28;20043;-93
2021/12/31 07:10:41;;;;;;;7.45;2.85;;;13.40;99.90;;;;;;4992468;28;20062;-96
2021/12/31 07:13:11;;;;;;;6.13;2.80;;;13.40;99.90;;;;;;4987052;28;20132;-95
2021/12/31 07:15:41;;;;;;;7.28;2.45;;;13.40;99.90;;;;;;5000055;28;20037;-93
2021/12/31 07:18:10;;;;;;;6.20;2.53;;;13.30;99.90;;;;;;4989848;28;20097;-96
2021/12/31 07:20:36;;;;;;;7.32;2.50;;;13.40;99.90;;;;;;5001519;28;20618;-94
2021/12/31 07:23:06;;;;;;;7.45;2.90;;;13.30;99.90;;;;;;5006885;28;20327;-94
2021/12/31 07:25:33;;;;;;;6.28;2.78;;;13.30;99.90;;;;;;4984890;28;20074;-91
2021/12/31 07:27:59;;;;;;;6.80;2.53;;;13.20;99.90;;;;;;4997025;28;20133;-95
2021/12/31 07:30:24;;;;;;;6.78;2.50;;;13.20;99.90;;;;;;4980258;28;20089;-95
2021/12/31 07:32:50;;;;;;;6.80;3.30;;;13.20;99.90;;;;;;4979475;28;20042;-94
2021/12/31 07:35:16;;;;;;;7.13;2.67;;;13.20;99.90;;;;;;4974067;28;20042;-94
2021/12/31 07:37:41;;;;;;;6.30;2.63;;;13.20;99.90;;;;;;4981776;28;20039;-95
2021/12/31 07:40:10;;;;;;;7.65;2.38;;;13.20;99.90;;;;;;5001615;28;20042;-96
2021/12/31 07:42:36;;;;;;;7.53;2.88;;;13.20;99.90;;;;;;5004329;28;20056;-94
2021/12/31 07:45:06;;;;;;;5.53;2.50;;;13.20;99.90;;;;;;5007512;28;20046;-94
2021/12/31 07:47:31;;;;;;;5.45;2.38;;;13.20;99.90;;;;;;5014481;28;20046;-93
2021/12/31 07:49:57;;;;;;;7.05;2.42;;;13.20;99.90;;;;;;4994820;28;20042;-96
2021/12/31 07:52:23;;;;;;;5.97;2.55;;;13.10;99.90;;;;;;5015387;28;20050;-95
2021/12/31 07:54:48;;;;;;;6.97;2.78;;;13.10;99.90;;;;;;5013221;28;20033;-93
2021/12/31 07:57:14;;;;;;;6.38;2.72;;;13.10;99.90;;;;;;5006889;28;20061;-94
2021/12/31 07:59:40;;;;;;;6.95;2.80;;;13.10;99.90;;;;;;5008021;28;20034;-95
2021/12/31 08:02:05;;;;;;;6.88;2.70;;;13.10;99.90;;;;;;4996369;28;20038;-93
2021/12/31 08:04:31;;;;;;;7.53;3.08;;;13.10;99.90;;;;;;4988600;28;20046;-94
2021/12/31 08:06:57;;;;;;;6.13;2.70;;;13.10;99.90;;;;;;4980866;28;20023;-94
2021/12/31 08:09:22;;;;;;;8.05;2.90;;;13.10;99.90;;;;;;5000484;28;20074;-95
2021/12/31 08:11:48;;;;;;;7.47;2.70;;;13.10;99.90;;;;;;5017892;28;20107;-94
2021/12/31 08:14:19;;;;;;;6.20;2.90;;;13.10;99.90;;;;;;5019226;28;20049;-95
2021/12/31 08:16:44;;;;;;;7.82;2.63;;;13.10;99.90;;;;;;4982344;28;20503;-96
2021/12/31 08:19:10;;;;;;;5.88;2.72;;;13.20;99.90;;;;;;4988579;28;20042;-93
2021/12/31 08:21:35;;;;;;;7.00;2.60;;;13.20;99.90;;;;;;4990241;28;20366;-95
2021/12/31 08:24:01;;;;;;;6.45;2.83;;;13.20;99.90;;;;;;4985308;28;20042;-93
2021/12/31 08:26:27;;;;;;;5.72;2.35;;;13.30;99.90;;;;;;5016067;28;20057;-93
2021/12/31 08:28:55;;;;;;;7.72;2.60;;;13.40;99.90;;;;;;4998666;28;20106;-94
2021/12/31 08:31:21;;;;;;;6.13;2.38;;;13.30;99.90;;;;;;4994399;28;20045;-95
2021/12/31 08:33:46;;;;;;;6.55;2.63;;;13.40;99.90;;;;;;4984379;28;20061;-94
2021/12/31 08:36:12;;;;;;;6.05;2.65;;;13.40;99.90;;;;;;5006082;28;20045;-95
2021/12/31 08:38:38;;;;;;;5.10;2.55;;;13.40;99.90;;;;;;5000899;28;20061;-95
2021/12/31 08:41:04;;;;;;;5.00;2.50;;;13.40;99.90;;;;;;4984568;28;20089;-93
2021/12/31 08:43:29;;;;;;;7.13;3.10;;;13.50;99.90;;;;;;5013080;28;20092;-95
2021/12/31 08:45:55;;;;;;;7.28;2.50;;;13.50;99.90;;;;;;5009385;28;20038;-94
2021/12/31 08:48:21;;;;;;;6.78;2.58;;;13.60;99.90;;;;;;4994963;28;20050;-93
2021/12/31 08:50:50;;;;;;;6.35;2.67;;;13.50;99.90;;;;;;4989167;28;20046;-96
2021/12/31 08:53:15;;;;;;;6.10;2.45;;;13.60;99.90;;;;;;5020330;28;20034;-91
2021/12/31 08:55:42;;;;;;;6.78;3.00;;;13.60;99.90;;;;;;4996674;28;20056;-94
2021/12/31 08:58:07;;;;;;;6.07;2.55;;;13.60;99.90;;;;;;5004785;28;20046;-90
2021/12/31 09:00:33;;;;;;;6.68;2.70;;;13.60;99.90;;;;;;4979497;28;20046;-92
2021/12/31 09:02:59;;;;;;;7.43;2.53;;;13.60;99.90;;;;;;4996333;28;20110;-91
2021/12/31 09:05:24;;;;;;;6.20;2.63;;;13.60;99.90;;;;;;4981397;28;20415;-91
2021/12/31 09:07:50;;;;;;;6.57;3.00;;;13.60;99.90;;;;;;5000644;28;20046;-92
2021/12/31 09:10:17;;;;;;;7.70;3.13;;;13.50;99.90;;;;;;5005570;28;20085;-96
2021/12/31 09:12:46;;;;;;;6.22;2.80;;;13.50;99.90;;;;;;4977308;28;20050;-91
2021/12/31 09:15:13;;;;;;;6.40;2.63;;;13.50;99.90;;;;;;4989050;28;20085;-94
2021/12/31 09:17:39;;;;;;;8.02;3.17;;;13.60;99.90;;;;;;4981871;28;20088;-95
2021/12/31 09:20:06;;;;;;;8.50;3.58;;;13.50;99.90;;;;;;5006549;28;20092;-93
2021/12/31 09:22:31;;;;;;;6.43;2.80;;;13.50;99.90;;;;;;4988705;28;20034;-95
2021/12/31 09:25:00;;;;;;;7.78;2.97;;;13.40;99.90;;;;;;5003090;28;20102;-92
2021/12/31 09:27:26;;;;;;;7.03;3.30;;;13.40;99.90;;;;;;5000047;28;20125;-96
2021/12/31 09:29:53;;;;;;;7.63;3.03;;;13.40;99.90;;;;;;4985769;28;20112;-95
2021/12/31 09:32:22;;;;;;;7.47;2.75;;;13.40;99.90;;;;;;4986063;28;20037;-94
2021/12/31 09:34:48;;;;;;;8.10;3.00;;;13.40;99.90;;;;;;4986304;28;20046;-92
2021/12/31 09:37:15;;;;;;;6.38;2.92;;;13.40;99.90;;;;;;4991263;28;20045;-95
2021/12/31 09:39:41;;;;;;;6.30;2.88;;;13.40;99.90;;;;;;4997056;28;20243;-94
2021/12/31 09:42:08;;;;;;;7.50;2.92;;;13.50;99.90;;;;;;4989082;28;20120;-93
2021/12/31 09:44:34;;;;;;;7.25;2.90;;;13.50;99.90;;;;;;4978388;28;20084;-93
2021/12/31 09:47:09;;;;;;;7.38;2.72;;;13.50;99.90;;;;;;4989615;28;20437;-91
2021/12/31 09:49:39;;;;;;;6.22;2.85;;;13.50;99.90;;;;;;4981081;28;20050;-96
2021/12/31 09:52:09;;;;;;;6.40;2.80;;;13.50;99.90;;;;;;4995026;28;20081;-94
2021/12/31 09:54:34;;;;;;;6.88;2.90;;;13.50;99.90;;;;;;4995269;28;20053;-94
2021/12/31 09:57:02;;;;;;;7.60;3.45;;;13.50;99.90;;;;;;4998540;28;20039;-92
2021/12/31 09:59:28;;;;;;;12.63;7.35;;;13.50;99.90;;;;;;4970810;28;20372;-94
2021/12/31 10:01:54;;;;;;;13.23;11.85;;;13.50;99.90;;;;;;4992023;28;20049;-95
2021/12/31 10:04:20;;;;;;;20.20;18.25;;;13.50;99.90;;;;;;5000384;28;20034;-92
2021/12/31 10:07:09;;;;;;;15.68;14.07;;;13.40;99.90;;;;;;5002215;28;20541;-90
2021/12/31 10:09:38;;;;;;;24.08;21.88;;;13.40;99.90;;;;;;4999064;28;20053;-93
2021/12/31 10:12:04;;;;;;;25.35;23.15;;;13.40;99.90;;;;;;4996295;28;20062;-93
2021/12/31 10:14:38;;;;;;;29.13;26.73;;;13.40;99.90;;;;;;5002052;28;20041;-95
2021/12/31 10:17:08;;;;;;;33.75;30.85;;;13.40;99.90;;;;;;5002038;28;20042;-93
2021/12/31 10:19:34;;;;;;;25.23;22.93;;;13.40;99.90;;;;;;4999149;28;20038;-94
2021/12/31 10:22:00;;;;;;;22.02;19.92;;;13.40;99.90;;;;;;4990009;28;20138;-92
2021/12/31 10:24:35;;;;;;;18.02;16.23;;;13.40;99.90;;;;;;5010600;28;20105;-93
2021/12/31 10:27:09;;;;;;;18.40;16.70;;;13.40;99.90;;;;;;5006484;28;20042;-96
2021/12/31 10:29:54;;;;;;;15.55;13.65;;;13.40;99.90;;;;;;5010205;28;20058;-94
2021/12/31 10:32:25;;;;;;;13.45;12.05;;;13.40;99.90;;;;;;4991973;28;20049;-95
2021/12/31 10:34:51;;;;;;;;;;;13.40;99.90;;;;;;4991170;28;20042;-92
2021/12/31 10:37:18;;;;;;;13.07;11.68;;;13.30;99.90;;;;;;4997806;28;19928;-95
2021/12/31 10:39:44;;;;;;;11.43;9.25;;;13.30;99.90;;;;;;5011852;28;20038;-95
2021/12/31 10:42:12;;;;;;;11.68;8.27;;;13.40;99.90;;;;;;5004992;28;20105;-96
2021/12/31 10:44:45;;;;;;;9.90;7.28;;;13.40;99.90;;;;;;4988115;28;20049;-90
2021/12/31 10:47:21;;;;;;;10.52;8.02;;;13.40;99.90;;;;;;4996784;28;20070;-93
2021/12/31 10:50:02;;;;;;;11.02;7.93;;;13.40;99.90;;;;;;4995036;28;20050;-95
2021/12/31 10:52:41;;;;;;;10.93;7.78;;;13.40;99.90;;;;;;4999244;28;20046;-95
2021/12/31 10:55:17;;;;;;;11.50;7.88;;;13.30;99.90;;;;;;4982771;28;20068;-93
2021/12/31 10:57:45;;;;;;;10.30;6.90;;;13.30;99.90;;;;;;4993342;28;20046;-93
2021/12/31 11:00:13;;;;;;;9.63;6.78;;;13.40;99.90;;;;;;5003585;28;20112;-91
2021/12/31 11:02:39;;;;;;;9.65;6.43;;;13.30;99.90;;;;;;5005590;28;20045;-95
2021/12/31 11:05:06;;;;;;;10.98;6.47;;;13.30;99.90;;;;;;4999875;28;20495;-94
2021/12/31 11:07:34;;;;;;;9.32;5.93;;;13.30;99.90;;;;;;4996457;28;20046;-95
2021/12/31 11:10:01;;;;;;;9.20;5.90;;;13.30;99.90;;;;;;5005747;28;20049;-95
2021/12/31 11:12:27;;;;;;;10.77;6.30;;;13.20;99.90;;;;;;4997421;28;20490;-94
2021/12/31 11:14:54;;;;;;;9.75;5.53;;;13.20;99.90;;;;;;5009401;28;20038;-94
2021/12/31 11:17:23;;;;;;;10.23;6.18;;;13.20;99.90;;;;;;5012967;28;20128;-93
2021/12/31 11:19:50;;;;;;;10.73;6.32;;;13.10;99.90;;;;;;5014362;28;20080;-93
2021/12/31 11:22:27;;;;;;;10.45;6.57;;;13.10;99.90;;;;;;5006521;28;20049;-96
2021/12/31 11:24:52;;;;;;;10.73;7.03;;;13.10;99.90;;;;;;4997896;28;20045;-91
2021/12/31 11:27:34;;;;;;;11.30;7.03;;;13.10;99.90;;;;;;4997533;28;20042;-95
2021/12/31 11:30:04;;;;;;;11.13;5.78;;;13.10;99.90;;;;;;4996907;28;20459;-94
2021/12/31 11:32:45;;;;;;;10.15;5.97;;;13.00;99.90;;;;;;5007192;28;20025;-96
2021/12/31 11:35:32;;;;;;;10.73;7.03;;;13.00;99.90;;;;;;4993484;28;20045;-94
2021/12/31 11:37:58;;;;;;;10.20;5.53;;;13.00;99.90;;;;;;5008657;28;20049;-96
2021/12/31 11:40:32;;;;;;;9.82;5.43;;;13.00;99.90;;;;;;4994326;28;20048;-94
2021/12/31 11:43:14;;;;;;;10.95;5.97;;;13.00;99.90;;;;;;4993948;28;20049;-91
2021/12/31 11:45:40;;;;;;;10.30;6.13;;;13.00;99.90;;;;;;4994475;28;20060;-91
2021/12/31 11:48:47;;;;;;;10.60;5.88;;;13.00;99.90;;;;;;4998780;28;20034;-92
2021/12/31 11:51:38;;;;;;;9.63;5.45;;;13.00;99.90;;;;;;5000723;28;20114;-92
2021/12/31 11:54:06;;;;;;;;;;;13.00;99.90;;;;;;5024182;28;20064;-95
2021/12/31 11:56:45;;;;;;;10.10;5.30;;;12.90;99.90;;;;;;5090614;23;19928;-94
2021/12/31 11:59:13;;;;;;;9.82;5.22;;;13.00;99.90;;;;;;5011416;28;20046;-96
2021/12/31 12:01:43;;;;;;;11.38;5.57;;;13.00;99.90;;;;;;5045808;28;20049;-96
2021/12/31 12:04:25;;;;;;;12.48;6.82;;;13.00;99.90;;;;;;5002426;28;20048;-95
2021/12/31 12:07:25;;;;;;;9.65;5.78;;;13.00;99.90;;;;;;5157626;23;20049;-95
2021/12/31 12:09:51;;;;;;;11.77;7.50;;;13.10;99.90;;;;;;5045031;28;20503;-94
2021/12/31 12:12:27;;;;;;;9.82;6.18;;;13.10;99.90;;;;;;5055936;28;20066;-95
2021/12/31 12:14:56;;;;;;;10.40;6.50;;;13.10;99.90;;;;;;5050189;28;20028;-94
2021/12/31 12:17:28;;;;;;;12.18;6.82;;;13.10;99.90;;;;;;5051984;28;20041;-95
2021/12/31 12:19:56;;;;;;;9.60;6.65;;;13.00;99.90;;;;;;5041985;28;20059;-94
2021/12/31 12:22:28;;;;;;;13.27;7.63;;;13.00;99.90;;;;;;5032281;28;20096;-94
2021/12/31 12:24:55;;;;;;;18.10;13.73;;;13.10;99.90;;;;;;5044420;28;20071;-91
2021/12/31 12:27:22;;;;;;;12.48;7.60;;;13.00;99.90;;;;;;5155775;22;20045;-93
2021/12/31 12:29:49;;;;;;;13.45;7.88;;;13.00;99.90;;;;;;5013159;28;20049;-96
2021/12/31 12:32:17;;;;;;;12.48;8.25;;;12.90;99.90;;;;;;5008247;28;20044;-94
2021/12/31 12:34:43;;;;;;;13.30;8.80;;;12.80;99.90;;;;;;4986218;28;20080;-95
2021/12/31 12:37:09;;;;;;;11.63;8.05;;;12.70;99.90;;;;;;4988480;28;20070;-93
2021/12/31 12:39:35;;;;;;;12.68;8.02;;;12.60;99.90;;;;;;4991373;28;20121;-93
2021/12/31 12:42:01;;;;;;;12.98;9.05;;;12.60;99.90;;;;;;4977421;28;20045;-95
2021/12/31 12:44:28;;;;;;;15.32;8.88;;;12.50;99.90;;;;;;4978630;28;20057;-95
2021/12/31 12:46:55;;;;;;;28.20;25.40;;;12.50;99.90;;;;;;4978723;28;20390;-93
2021/12/31 12:49:24;;;;;;;14.35;9.25;;;12.40;99.90;;;;;;4997369;28;20053;-94
2021/12/31 12:51:51;;;;;;;15.85;11.27;;;12.40;99.90;;;;;;4975035;28;20102;-93
2021/12/31 12:54:22;;;;;;;13.68;9.63;;;12.40;99.90;;;;;;4982102;28;20067;-93
2021/12/31 12:56:51;;;;;;;16.65;9.80;;;12.40;99.90;;;;;;4991124;28;20048;-93